createdAt,value
2018-04-02T00:02:14.983Z,-0.10
2018-04-02T00:04:45.062Z,-0.10
2018-04-02T00:07:15.275Z,-0.20
2018-04-02T00:09:45.426Z,-0.20
2018-04-02T00:12:16.457Z,-0.40
2018-04-02T00:14:47.541Z,-0.60
2018-04-02T00:17:18.194Z,-0.70
2018-04-02T00:19:48.310Z,-0.70
2018-04-02T00:22:18.734Z,-0.70
2018-04-02T00:24:49.162Z,-0.70
2018-04-02T00:27:19.408Z,-0.90
2018-04-02T00:29:51.160Z,-1.00
2018-04-02T00:32:21.298Z,-1.10
2018-04-02T00:34:51.799Z,-1.20
2018-04-02T00:37:22.174Z,-1.20
2018-04-02T00:39:53.251Z,-1.20
2018-04-02T00:42:25.063Z,-1.40
2018-04-02T00:44:56.447Z,-1.40
2018-04-02T00:47:26.763Z,-1.50
2018-04-02T00:49:57.731Z,-1.40
2018-04-02T00:52:28.230Z,-1.30
2018-04-02T00:54:58.462Z,-1.20
2018-04-02T00:57:29.954Z,-1.30
2018-04-02T01:00:00.448Z,-1.30
2018-04-02T01:02:30.928Z,-1.20
2018-04-02T01:05:01.116Z,-1.30
2018-04-02T01:07:31.559Z,-1.40
2018-04-02T01:10:06.527Z,-1.50
2018-04-02T01:12:42.174Z,-1.60
2018-04-02T01:15:23.211Z,-1.70
2018-04-02T01:17:56.987Z,-1.70
2018-04-02T01:23:21.190Z,-1.90
2018-04-02T01:25:55.207Z,-1.90
2018-04-02T01:28:26.180Z,-1.70
2018-04-02T01:30:57.864Z,-1.50
2018-04-02T01:36:06.924Z,-1.40
2018-04-02T01:38:37.565Z,-1.40
2018-04-02T01:41:08.788Z,-1.40
2018-04-02T01:43:38.941Z,-1.40
2018-04-02T01:46:17.502Z,-1.40
2018-04-02T01:51:33.155Z,-1.50
2018-04-02T01:54:03.306Z,-1.50
2018-04-02T01:56:36.256Z,-1.50
2018-04-02T01:59:10.317Z,-1.50
2018-04-02T02:01:40.248Z,-1.50
2018-04-02T02:04:26.263Z,-1.40
2018-04-02T02:06:57.665Z,-1.40
2018-04-02T02:09:28.644Z,-1.40
2018-04-02T02:11:58.860Z,-1.40
2018-04-02T02:14:29.071Z,-1.40
2018-04-02T02:16:59.394Z,-1.30
2018-04-02T02:22:58.297Z,-1.30
2018-04-02T02:25:39.188Z,-1.30
2018-04-02T02:28:09.831Z,-1.20
2018-04-02T02:33:51.440Z,-1.10
2018-04-02T02:36:22.884Z,-1.20
2018-04-02T02:48:16.144Z,-1.30
2018-04-02T02:50:56.591Z,-1.50
2018-04-02T02:53:27.292Z,-1.60
2018-04-02T02:55:57.742Z,-1.70
2018-04-02T02:58:28.154Z,-1.60
2018-04-02T03:00:58.280Z,-1.60
2018-04-02T03:03:28.900Z,-1.60
2018-04-02T03:05:59.022Z,-1.60
2018-04-02T03:11:40.333Z,-1.60
2018-04-02T03:14:11.827Z,-1.50
2018-04-02T03:16:42.643Z,-1.50
2018-04-02T03:19:12.771Z,-1.50
2018-04-02T03:21:43.130Z,-1.30
2018-04-02T03:24:12.951Z,-1.10
2018-04-02T03:27:09.897Z,-0.90
2018-04-02T03:29:55.140Z,-0.80
2018-04-02T03:32:27.606Z,-0.70
2018-04-02T03:34:57.475Z,-0.80
2018-04-02T03:37:35.083Z,-0.80
2018-04-02T03:40:06.688Z,-0.70
2018-04-02T03:42:56.600Z,-0.80
2018-04-02T03:45:27.038Z,-0.80
2018-04-02T03:47:57.223Z,-0.90
2018-04-02T03:50:27.386Z,-1.00
2018-04-02T03:52:57.712Z,-1.00
2018-04-02T03:55:27.872Z,-1.10
2018-04-02T04:01:01.643Z,-1.10
2018-04-02T04:06:20.403Z,-1.20
2018-04-02T04:08:51.431Z,-1.20
2018-04-02T04:14:41.508Z,-1.20
2018-04-02T04:17:27.703Z,-1.30
2018-04-02T04:22:59.095Z,-1.50
2018-04-02T04:25:49.013Z,-1.40
2018-04-02T04:32:01.723Z,-1.40
2018-04-02T04:37:58.757Z,-1.30
2018-04-02T04:40:29.527Z,-1.20
2018-04-02T04:43:21.619Z,-1.20
2018-04-02T04:46:08.549Z,-1.10
2018-04-02T04:52:11.616Z,-1.10
2018-04-02T04:58:12.236Z,-1.00
2018-04-02T05:00:54.666Z,-1.00
2018-04-02T05:03:37.237Z,-1.00
2018-04-02T05:06:08.149Z,-1.10
2018-04-02T05:08:51.021Z,-1.10
2018-04-02T05:11:21.152Z,-1.00
2018-04-02T05:20:17.961Z,-0.80
2018-04-02T05:23:01.866Z,-0.70
2018-04-02T05:25:44.711Z,-0.50
2018-04-02T05:28:32.899Z,-0.60
2018-04-02T05:34:22.919Z,-0.50
2018-04-02T05:36:59.148Z,-0.30
2018-04-02T05:39:41.750Z,-0.20
2018-04-02T05:42:11.960Z,-0.10
2018-04-02T05:44:42.122Z,0.00
2018-04-02T05:47:34.731Z,0.00
2018-04-02T05:53:29.474Z,0.20
2018-04-02T05:56:18.447Z,0.30
2018-04-02T06:02:14.925Z,0.40
2018-04-02T06:04:45.747Z,0.50
2018-04-02T06:07:15.860Z,0.60
2018-04-02T06:15:51.192Z,0.80
2018-04-02T06:18:40.041Z,0.90
2018-04-02T06:24:19.215Z,1.00
2018-04-02T06:29:57.447Z,1.70
2018-04-02T06:35:10.974Z,2.10
2018-04-02T06:37:41.946Z,2.50
2018-04-02T06:40:12.672Z,2.50
2018-04-02T06:46:06.745Z,3.00
2018-04-02T06:52:03.155Z,3.60
2018-04-02T06:57:46.842Z,4.00
2018-04-02T07:00:17.685Z,4.30
2018-04-02T07:03:04.476Z,4.40
2018-04-02T07:05:59.614Z,4.60
2018-04-02T07:08:50.829Z,4.90
2018-04-02T07:14:33.336Z,5.60
2018-04-02T07:17:29.042Z,6.00
2018-04-02T07:20:18.356Z,6.00
2018-04-02T07:22:48.381Z,6.00
2018-04-02T07:28:44.510Z,6.30
2018-04-02T07:34:36.420Z,6.20
2018-04-02T07:40:12.744Z,5.80
2018-04-02T07:42:45.548Z,6.10
2018-04-02T07:45:28.094Z,6.20
2018-04-02T07:48:14.599Z,6.20
2018-04-02T07:50:57.096Z,6.40
2018-04-02T07:53:49.376Z,6.50
2018-04-02T07:59:28.038Z,6.80
2018-04-02T08:02:18.682Z,6.80
2018-04-02T08:11:20.418Z,6.90
2018-04-02T08:14:18.768Z,6.90
2018-04-02T08:42:22.752Z,8.10
2018-04-02T08:45:25.921Z,8.20
2018-04-02T08:56:42.418Z,7.40
2018-04-02T09:02:15.957Z,7.80
2018-04-02T09:07:52.531Z,7.90
2018-04-02T09:10:26.284Z,7.80
2018-04-02T09:13:17.784Z,7.90
2018-04-02T09:15:50.234Z,8.20
2018-04-02T09:18:24.070Z,8.20
2018-04-02T09:20:54.824Z,8.20
2018-04-02T09:23:28.307Z,8.90
2018-04-02T09:26:02.899Z,8.90
2018-04-02T09:28:42.675Z,8.80
2018-04-02T09:31:12.508Z,9.00
2018-04-02T09:33:43.774Z,9.30
2018-04-02T09:36:14.208Z,8.90
2018-04-02T09:38:44.253Z,9.00
2018-04-02T09:41:14.320Z,9.00
2018-04-02T09:43:44.674Z,9.10
2018-04-02T09:46:15.776Z,9.80
2018-04-02T09:48:46.070Z,9.80
2018-04-02T09:51:16.193Z,10.30
2018-04-02T09:53:46.270Z,10.30
2018-04-02T09:56:16.541Z,10.40
2018-04-02T09:58:46.642Z,10.40
2018-04-02T10:01:16.519Z,10.30
2018-04-02T10:03:52.232Z,10.40
2018-04-02T10:06:22.004Z,10.20
2018-04-02T10:08:52.112Z,10.00
2018-04-02T10:11:22.228Z,9.90
2018-04-02T10:13:52.126Z,9.90
2018-04-02T10:16:22.668Z,9.90
2018-04-02T10:18:53.061Z,9.90
2018-04-02T10:21:24.251Z,10.00
2018-04-02T10:23:54.377Z,9.90
2018-04-02T10:26:24.647Z,10.10
2018-04-02T10:28:54.747Z,10.10
2018-04-02T10:31:24.872Z,10.00
2018-04-02T10:33:55.800Z,10.00
2018-04-02T10:36:25.890Z,9.90
2018-04-02T10:38:56.009Z,10.20
2018-04-02T10:41:26.108Z,10.40
2018-04-02T10:43:56.788Z,10.90
2018-04-02T10:46:26.897Z,10.90
2018-04-02T10:48:57.790Z,11.40
2018-04-02T10:51:28.159Z,11.40
2018-04-02T10:53:58.246Z,11.90
2018-04-02T10:56:28.030Z,12.40
2018-04-02T10:58:57.786Z,13.00
2018-04-02T11:01:28.090Z,13.40
2018-04-02T11:03:58.909Z,13.80
2018-04-02T11:06:29.010Z,13.80
2018-04-02T11:09:00.042Z,13.80
2018-04-02T11:11:30.144Z,13.70
2018-04-02T11:14:00.811Z,14.30
2018-04-02T11:16:31.101Z,14.40
2018-04-02T11:19:02.067Z,14.60
2018-04-02T11:21:32.210Z,14.50
2018-04-02T11:24:02.564Z,14.40
2018-04-02T11:26:33.637Z,14.20
2018-04-02T11:29:04.174Z,14.20
2018-04-02T11:31:34.554Z,14.70
2018-04-02T11:34:04.888Z,15.00
2018-04-02T11:36:35.613Z,15.00
2018-04-02T11:39:04.598Z,14.40
2018-04-02T11:41:35.499Z,14.40
2018-04-02T11:44:05.604Z,14.40
2018-04-02T11:46:35.868Z,14.90
2018-04-02T11:49:07.146Z,15.30
2018-04-02T11:51:38.725Z,15.80
2018-04-02T11:54:09.429Z,15.90
2018-04-02T11:56:39.577Z,15.40
2018-04-02T11:59:10.427Z,14.60
2018-04-02T12:01:40.299Z,14.60
2018-04-02T12:04:10.404Z,15.00
2018-04-02T12:06:40.496Z,15.30
2018-04-02T12:09:11.810Z,15.50
2018-04-02T12:11:42.121Z,15.50
2018-04-02T12:14:14.314Z,16.20
2018-04-02T12:16:45.159Z,16.20
2018-04-02T12:19:16.857Z,16.10
2018-04-02T12:21:47.498Z,15.80
2018-04-02T12:24:18.386Z,15.40
2018-04-02T12:26:49.237Z,15.60
2018-04-02T12:29:20.360Z,15.90
2018-04-02T12:31:51.696Z,16.20
2018-04-02T12:34:22.853Z,16.10
2018-04-02T12:36:53.743Z,16.40
2018-04-02T12:39:24.474Z,16.40
2018-04-02T12:41:55.382Z,16.40
2018-04-02T12:44:25.486Z,16.20
2018-04-02T12:46:56.606Z,16.10
2018-04-02T12:49:27.774Z,16.30
2018-04-02T12:51:58.472Z,16.40
2018-04-02T12:54:28.584Z,15.70
2018-04-02T12:56:58.785Z,15.00
2018-04-02T12:59:29.130Z,14.60
2018-04-02T13:01:59.235Z,14.00
2018-04-02T13:04:30.325Z,14.60
2018-04-02T13:07:01.680Z,15.00
2018-04-02T13:09:32.004Z,15.00
2018-04-02T13:12:02.326Z,15.20
2018-04-02T13:14:32.431Z,15.30
2018-04-02T13:17:02.516Z,15.50
2018-04-02T13:19:32.585Z,16.10
2018-04-02T13:22:02.668Z,16.60
2018-04-02T13:24:33.501Z,16.80
2018-04-02T13:27:04.562Z,16.60
2018-04-02T13:29:34.824Z,16.60
2018-04-02T13:32:05.128Z,16.20
2018-04-02T13:34:35.209Z,16.20
2018-04-02T13:37:06.243Z,16.60
2018-04-02T13:39:36.917Z,16.60
2018-04-02T13:42:07.334Z,16.40
2018-04-02T13:44:42.439Z,14.80
2018-04-02T13:47:13.441Z,14.80
2018-04-02T13:49:43.642Z,14.40
2018-04-02T13:52:13.942Z,14.50
2018-04-02T13:54:44.057Z,14.30
2018-04-02T13:57:14.923Z,13.70
2018-04-02T13:59:45.268Z,13.60
2018-04-02T14:02:15.653Z,13.50
2018-04-02T14:04:47.023Z,14.10
2018-04-02T14:07:18.207Z,14.70
2018-04-02T14:09:48.073Z,14.70
2018-04-02T14:12:18.204Z,15.30
2018-04-02T14:14:48.602Z,15.60
2018-04-02T14:17:19.314Z,15.70
2018-04-02T14:19:49.938Z,16.00
2018-04-02T14:22:20.056Z,15.80
2018-04-02T14:24:51.104Z,15.40
2018-04-02T14:27:21.402Z,15.40
2018-04-02T14:29:51.269Z,15.70
2018-04-02T14:32:22.136Z,16.00
2018-04-02T14:34:53.848Z,16.10
2018-04-02T14:37:25.418Z,16.00
2018-04-02T14:39:56.297Z,15.80
2018-04-02T14:42:28.576Z,15.80
2018-04-02T14:44:59.168Z,15.40
2018-04-02T14:47:30.974Z,15.20
2018-04-02T14:50:01.508Z,14.90
2018-04-02T14:52:32.512Z,14.70
2018-04-02T14:55:02.687Z,14.60
2018-04-02T14:57:33.621Z,14.70
2018-04-02T15:00:06.346Z,14.60
2018-04-02T15:02:37.819Z,14.30
2018-04-02T15:05:09.885Z,14.20
2018-04-02T15:07:40.772Z,14.40
2018-04-02T15:10:11.941Z,14.30
2018-04-02T15:12:42.810Z,14.30
2018-04-02T15:15:12.971Z,14.20
2018-04-02T15:17:46.706Z,14.20
2018-04-02T15:20:17.106Z,14.00
2018-04-02T15:22:47.316Z,13.80
2018-04-02T15:25:18.232Z,13.70
2018-04-02T15:27:48.326Z,13.70
2018-04-02T15:30:18.533Z,13.70
2018-04-02T15:32:49.390Z,13.70
2018-04-02T15:35:19.804Z,13.70
2018-04-02T15:37:49.909Z,13.80
2018-04-02T15:40:20.974Z,13.90
2018-04-02T15:42:51.509Z,13.90
2018-04-02T15:45:21.858Z,13.70
2018-04-02T15:47:52.787Z,13.40
2018-04-02T15:50:23.961Z,13.40
2018-04-02T15:52:54.140Z,13.40
2018-04-02T15:55:26.340Z,13.20
2018-04-02T15:57:57.916Z,13.10
2018-04-02T16:00:28.243Z,13.10
2018-04-02T16:02:58.318Z,13.10
2018-04-02T16:05:29.204Z,12.90
2018-04-02T16:07:59.342Z,12.90
2018-04-02T16:10:29.424Z,12.80
2018-04-02T16:13:01.852Z,12.70
2018-04-02T16:15:31.732Z,12.70
2018-04-02T16:18:01.877Z,12.60
2018-04-02T16:20:32.280Z,12.60
2018-04-02T16:23:02.409Z,12.50
2018-04-02T16:25:32.518Z,12.40
2018-04-02T16:28:02.760Z,12.30
2018-04-02T16:30:32.878Z,12.20
2018-04-02T16:33:03.067Z,12.00
2018-04-02T16:35:33.495Z,11.90
2018-04-02T16:38:03.704Z,11.70
2018-04-02T16:40:34.812Z,11.60
2018-04-02T16:43:04.922Z,11.50
2018-04-02T16:45:35.104Z,11.50
2018-04-02T16:48:05.414Z,11.00
2018-04-02T16:50:35.629Z,10.90
2018-04-02T16:53:15.597Z,10.70
2018-04-02T16:55:47.485Z,10.40
2018-04-02T16:58:17.688Z,10.30
2018-04-02T17:00:47.925Z,10.20
2018-04-02T17:03:18.131Z,10.20
2018-04-02T17:05:48.231Z,10.10
2018-04-02T17:08:19.126Z,10.10
2018-04-02T17:10:50.492Z,10.10
2018-04-02T17:13:20.637Z,10.10
2018-04-02T17:15:50.768Z,10.10
2018-04-02T17:18:20.903Z,10.00
2018-04-02T17:20:53.282Z,10.00
2018-04-02T17:23:23.507Z,9.90
2018-04-02T17:25:53.663Z,10.00
2018-04-02T17:28:24.084Z,9.90
2018-04-02T17:30:55.544Z,9.80
2018-04-02T17:33:25.693Z,9.80
2018-04-02T17:35:56.069Z,9.80
2018-04-02T17:38:26.895Z,9.80
2018-04-02T17:40:57.463Z,9.80
2018-04-02T17:43:27.631Z,9.80
2018-04-02T17:45:57.763Z,9.80
2018-04-02T17:48:28.094Z,9.80
2018-04-02T17:50:58.442Z,9.70
2018-04-02T17:53:28.561Z,9.60
2018-04-02T17:56:00.800Z,9.50
2018-04-02T17:58:32.434Z,9.40
2018-04-02T18:01:02.626Z,9.30
2018-04-02T18:03:32.724Z,9.30
2018-04-02T18:06:03.055Z,9.40
2018-04-02T18:08:33.186Z,9.40
2018-04-02T18:11:03.305Z,9.50
2018-04-02T18:13:33.631Z,9.50
2018-04-02T18:16:04.324Z,9.40
2018-04-02T18:18:35.350Z,9.40
2018-04-02T18:21:05.744Z,9.50
2018-04-02T18:23:35.856Z,9.50
2018-04-02T18:26:05.690Z,9.50
2018-04-02T18:28:36.102Z,9.50
2018-04-02T18:31:10.955Z,9.50
2018-04-02T18:33:41.868Z,9.50
2018-04-02T18:36:12.042Z,9.50
2018-04-02T18:38:42.452Z,9.50
2018-04-02T18:41:12.513Z,9.50
2018-04-02T18:43:43.117Z,9.50
2018-04-02T18:46:15.794Z,9.50
2018-04-02T18:48:49.504Z,9.60
2018-04-02T18:51:21.622Z,9.50
2018-04-02T18:53:52.065Z,9.50
2018-04-02T18:56:22.167Z,9.50
2018-04-02T18:58:54.873Z,9.40
2018-04-02T19:01:25.804Z,9.50
2018-04-02T19:03:55.638Z,9.50
2018-04-02T19:06:27.518Z,9.50
2018-04-02T19:08:57.622Z,9.50
2018-04-02T19:11:27.505Z,9.60
2018-04-02T19:14:03.942Z,9.50
2018-04-02T19:16:46.519Z,9.50
2018-04-02T19:19:16.666Z,9.50
2018-04-02T19:21:47.173Z,9.60
2018-04-02T19:24:20.317Z,9.60
2018-04-02T19:26:50.619Z,9.60
2018-04-02T19:29:20.827Z,9.60
2018-04-02T19:31:54.754Z,9.60
2018-04-02T19:34:24.958Z,9.70
2018-04-02T19:36:55.771Z,9.70
2018-04-02T19:39:26.127Z,9.70
2018-04-02T19:41:56.680Z,9.70
2018-04-02T19:44:27.911Z,9.70
2018-04-02T19:46:58.190Z,9.70
2018-04-02T19:49:28.318Z,9.80
2018-04-02T19:51:59.220Z,9.70
2018-04-02T19:54:29.646Z,9.70
2018-04-02T19:56:59.856Z,9.70
2018-04-02T19:59:31.365Z,9.70
2018-04-02T20:02:01.842Z,9.70
2018-04-02T20:04:32.011Z,9.70
2018-04-02T20:07:02.345Z,9.60
2018-04-02T20:09:32.200Z,9.60
2018-04-02T20:12:02.413Z,9.70
2018-04-02T20:14:32.797Z,9.70
2018-04-02T20:17:03.502Z,9.60
2018-04-02T20:19:33.809Z,9.60
2018-04-02T20:22:03.739Z,9.70
2018-04-02T20:24:34.102Z,9.60
2018-04-02T20:27:04.212Z,9.50
2018-04-02T20:29:34.329Z,9.50
2018-04-02T20:32:04.478Z,9.50
2018-04-02T20:34:38.822Z,9.50
2018-04-02T20:37:09.722Z,9.50
2018-04-02T20:39:40.761Z,9.50
2018-04-02T20:42:11.673Z,9.50
2018-04-02T20:44:41.776Z,9.40
2018-04-02T20:47:11.921Z,9.50
2018-04-02T20:49:42.858Z,9.50
2018-04-02T20:52:13.586Z,9.60
2018-04-02T20:54:45.705Z,9.60
2018-04-02T20:57:16.088Z,9.50
2018-04-02T20:59:46.198Z,9.50
2018-04-02T21:02:16.570Z,9.60
2018-04-02T21:04:46.446Z,9.60
2018-04-02T21:07:18.186Z,9.60
2018-04-02T21:09:55.428Z,9.70
2018-04-02T21:12:25.591Z,9.70
2018-04-02T21:14:55.789Z,9.80
2018-04-02T21:17:26.937Z,9.80
2018-04-02T21:19:57.393Z,9.80
2018-04-02T21:22:27.486Z,9.90
2018-04-02T21:24:57.580Z,9.80
2018-04-02T21:27:27.722Z,9.80
2018-04-02T21:29:57.893Z,9.70
2018-04-02T21:32:28.970Z,9.80
2018-04-02T21:35:04.908Z,9.80
2018-04-02T21:37:35.497Z,9.80
2018-04-02T21:40:06.360Z,9.70
2018-04-02T21:42:36.503Z,9.70
2018-04-02T21:45:07.483Z,9.50
2018-04-02T21:47:38.970Z,9.50
2018-04-02T21:50:10.034Z,9.50
2018-04-02T21:52:40.170Z,9.40
2018-04-02T21:55:10.354Z,9.50
2018-04-02T21:57:40.526Z,9.50
2018-04-02T22:00:09.946Z,9.50
2018-04-02T22:02:40.077Z,9.40
2018-04-02T22:05:10.213Z,9.30
2018-04-02T22:07:40.101Z,9.20
2018-04-02T22:10:17.587Z,9.10
2018-04-02T22:12:49.402Z,9.00
2018-04-02T22:15:19.489Z,9.10
2018-04-02T22:17:51.275Z,9.10
2018-04-02T22:20:21.136Z,9.20
2018-04-02T22:22:51.453Z,9.30
2018-04-02T22:25:24.714Z,9.40
2018-04-02T22:27:54.943Z,9.40
2018-04-02T22:30:28.923Z,9.30
2018-04-02T22:32:59.299Z,9.20
2018-04-02T22:35:29.657Z,9.10
2018-04-02T22:37:59.759Z,8.90
2018-04-02T22:40:29.890Z,8.90
2018-04-02T22:43:00.833Z,8.80
2018-04-02T22:45:30.989Z,8.70
2018-04-02T22:48:01.289Z,8.70
2018-04-02T22:50:31.754Z,8.70
2018-04-02T22:53:01.823Z,8.50
2018-04-02T22:55:32.019Z,8.20
2018-04-02T22:58:02.120Z,8.00
2018-04-02T23:00:32.276Z,8.20
2018-04-02T23:03:06.703Z,8.50
2018-04-02T23:05:40.834Z,8.40
2018-04-02T23:08:11.965Z,8.50
2018-04-02T23:10:45.371Z,8.50
2018-04-02T23:13:15.761Z,8.50
2018-04-02T23:15:50.136Z,8.50
2018-04-02T23:18:22.418Z,8.60
2018-04-02T23:20:52.792Z,8.60
2018-04-02T23:23:23.158Z,8.60
2018-04-02T23:25:55.254Z,8.60
2018-04-02T23:28:26.142Z,8.80
2018-04-02T23:30:56.247Z,8.80
2018-04-02T23:33:26.903Z,9.10
2018-04-02T23:35:57.780Z,9.10
2018-04-02T23:38:29.620Z,9.30
2018-04-02T23:41:03.269Z,9.30
2018-04-02T23:43:33.386Z,9.50
2018-04-02T23:46:03.476Z,9.80
2018-04-02T23:48:34.350Z,10.40
2018-04-02T23:51:04.457Z,10.40
2018-04-02T23:53:34.603Z,10.50
2018-04-02T23:56:04.992Z,10.70
2018-04-02T23:58:35.189Z,10.90
